Time;durP1;ratioP1;P1;durP2;ratioP2;P2;SDS_P1;SDS_P2;PMS_P1;PMS_P2;Temp;Humidity;BMP_temperature;BMP_pressure;BME280_temperature;BME280_humidity;BME280_pressure;Samples;Min_cycle;Max_cycle;Signal;HPM_P1;HPM_P2
2024/01/17 00:00:22;;;;;;;;;;;;;;;;;;2207902;59;2429;-19
2024/01/17 00:02:52;;;;;;;;;;;;;;;;;;2211834;59;1926;-19
2024/01/17 00:05:23;;;;;;;;;;;;;;;;;;2207825;67;1847;-19
2024/01/17 00:07:53;;;;;;;;;;;;;;;;;;2211532;53;3140;-19
2024/01/17 00:10:24;;;;;;;;;;;;;;;;;;2210773;53;3402;-20
2024/01/17 00:12:55;;;;;;;;;;;;;;;;;;2212660;59;2502;-20
2024/01/17 00:15:25;;;;;;;;;;;;;;;;;;2212849;53;2614;-18
2024/01/17 00:17:55;;;;;;;;;;;;;;;;;;2212921;67;2020;-19
2024/01/17 00:20:25;;;;;;;;;;;;;;;;;;2210994;60;1657;-19
2024/01/17 00:22:56;;;;;;;;;;;;;;;;;;2209958;67;1884;-18
2024/01/17 00:25:26;;;;;;;;;;;;;;;;;;2205868;67;1773;-19
2024/01/17 00:27:57;;;;;;;;;;;;;;;;;;2212403;67;2103;-18
2024/01/17 00:30:27;;;;;;;;;;;;;;;;;;2208011;59;1998;-20
2024/01/17 00:32:58;;;;;;;;;;;;;;;;;;2210186;53;2722;-19
2024/01/17 00:35:29;;;;;;;;;;;;;;;;;;2209235;59;3099;-20
2024/01/17 00:38:00;;;;;;;;;;;;;;;;;;2210228;66;1741;-18
2024/01/17 00:40:30;;;;;;;;;;;;;;;;;;2208819;67;2025;-19
2024/01/17 00:43:02;;;;;;;;;;;;;;;;;;2211218;59;2307;-19
2024/01/17 00:45:33;;;;;;;;;;;;;;;;;;2211221;53;2608;-20
2024/01/17 00:48:04;;;;;;;;;;;;;;;;;;2211544;59;2363;-19
2024/01/17 00:50:35;;;;;;;;;;;;;;;;;;2206876;59;1904;-18
2024/01/17 00:53:06;;;;;;;;;;;;;;;;;;2215595;53;3081;-20
2024/01/17 00:55:36;;;;;;;;;;;;;;;;;;2215445;53;2603;-20
2024/01/17 00:58:07;;;;;;;;;;;;;;;;;;2211069;53;2571;-19
2024/01/17 01:00:39;;;;;;;;;;;;;;;;;;2206883;59;2332;-18
2024/01/17 01:05:42;;;;;;;;;;;;;;;;;;2206797;59;2112;-19
2024/01/17 01:08:14;;;;;;;;;;;;;;;;;;2206412;53;3252;-20
2024/01/17 01:10:46;;;;;;;;;;;;;;;;;;2210411;58;2746;-20
2024/01/17 01:13:17;;;;;;;;;;;;;;;;;;2208716;59;1623;-19
2024/01/17 01:15:47;;;;;;;;;;;;;;;;;;2213359;53;3234;-19
2024/01/17 01:18:18;;;;;;;;;;;;;;;;;;2214728;66;1882;-19
2024/01/17 01:20:48;;;;;;;;;;;;;;;;;;2214974;66;2087;-20
2024/01/17 01:23:19;;;;;;;;;;;;;;;;;;2214402;58;2527;-19
2024/01/17 01:25:49;;;;;;;;;;;;;;;;;;2212474;59;2026;-18
2024/01/17 01:28:20;;;;;;;;;;;;;;;;;;2215067;58;2619;-21
2024/01/17 01:30:50;;;;;;;;;;;;;;;;;;2215414;53;2957;-19
2024/01/17 01:33:22;;;;;;;;;;;;;;;;;;2211145;59;1904;-18
2024/01/17 01:35:53;;;;;;;;;;;;;;;;;;2212254;53;3116;-19
2024/01/17 01:38:23;;;;;;;;;;;;;;;;;;2214567;66;1916;-20
2024/01/17 01:40:55;;;;;;;;;;;;;;;;;;2222513;53;3091;-20
2024/01/17 01:45:58;;;;;;;;;;;;;;;;;;2211814;59;2740;-19
2024/01/17 01:48:29;;;;;;;;;;;;;;;;;;2211890;53;3286;-20
2024/01/17 01:50:59;;;;;;;;;;;;;;;;;;2207496;67;1934;-18
2024/01/17 01:53:31;;;;;;;;;;;;;;;;;;2209517;53;3211;-19
2024/01/17 01:56:02;;;;;;;;;;;;;;;;;;2217808;53;3294;-18
2024/01/17 01:58:33;;;;;;;;;;;;;;;;;;2210789;59;2415;-18
2024/01/17 02:01:05;;;;;;;;;;;;;;;;;;2212611;59;2465;-18
2024/01/17 02:03:36;;;;;;;;;;;;;;;;;;2209745;59;1796;-20
2024/01/17 02:06:07;;;;;;;;;;;;;;;;;;2210240;53;2646;-18
2024/01/17 02:08:37;;;;;;;;;;;;;;;;;;2210417;59;3202;-19
2024/01/17 02:11:08;;;;;;;;;;;;;;;;;;2208092;59;2195;-19
2024/01/17 02:13:38;;;;;;;;;;;;;;;;;;2212464;53;3297;-20
2024/01/17 02:16:09;;;;;;;;;;;;;;;;;;2216758;53;3003;-20
2024/01/17 02:18:39;;;;;;;;;;;;;;;;;;2214279;58;1740;-18
2024/01/17 02:21:11;;;;;;;;;;;;;;;;;;2215448;58;2295;-18
2024/01/17 02:23:41;;;;;;;;;;;;;;;;;;2215153;66;1774;-19
2024/01/17 02:26:12;;;;;;;;;;;;;;;;;;2215245;53;3068;-20
2024/01/17 02:28:43;;;;;;;;;;;;;;;;;;2207340;67;1696;-19
2024/01/17 02:31:13;;;;;;;;;;;;;;;;;;2219665;53;3279;-19
2024/01/17 02:33:45;;;;;;;;;;;;;;;;;;2211037;59;2566;-19
2024/01/17 02:36:15;;;;;;;;;;;;;;;;;;2215661;53;3082;-19
2024/01/17 02:38:47;;;;;;;;;;;;;;;;;;2214641;53;2561;-20
2024/01/17 02:41:17;;;;;;;;;;;;;;;;;;2210298;66;2019;-18
2024/01/17 02:43:48;;;;;;;;;;;;;;;;;;2212081;59;2042;-19
2024/01/17 02:46:21;;;;;;;;;;;;;;;;;;2214836;53;4174;-18
2024/01/17 02:48:52;;;;;;;;;;;;;;;;;;2211007;58;2394;-19
2024/01/17 02:51:23;;;;;;;;;;;;;;;;;;2213709;58;2322;-20
2024/01/17 02:53:54;;;;;;;;;;;;;;;;;;2214850;58;3186;-20
2024/01/17 02:56:24;;;;;;;;;;;;;;;;;;2215038;53;3123;-20
2024/01/17 02:58:55;;;;;;;;;;;;;;;;;;2212942;53;2707;-19
2024/01/17 03:01:25;;;;;;;;;;;;;;;;;;2210234;59;1919;-18
2024/01/17 03:03:56;;;;;;;;;;;;;;;;;;2210228;66;2168;-18
2024/01/17 03:06:26;;;;;;;;;;;;;;;;;;2209708;59;2326;-18
2024/01/17 03:08:57;;;;;;;;;;;;;;;;;;2210596;59;2419;-20
2024/01/17 03:11:27;;;;;;;;;;;;;;;;;;2211587;59;2646;-19
2024/01/17 03:13:58;;;;;;;;;;;;;;;;;;2211440;59;2407;-18
2024/01/17 03:16:30;;;;;;;;;;;;;;;;;;2212255;53;2664;-18
2024/01/17 03:19:00;;;;;;;;;;;;;;;;;;2213006;59;2663;-19
2024/01/17 03:24:03;;;;;;;;;;;;;;;;;;2209368;59;1817;-20
2024/01/17 03:26:34;;;;;;;;;;;;;;;;;;2211112;59;1974;-18
2024/01/17 03:29:04;;;;;;;;;;;;;;;;;;2210546;59;1978;-18
2024/01/17 03:31:36;;;;;;;;;;;;;;;;;;2212916;53;2784;-19
2024/01/17 03:34:07;;;;;;;;;;;;;;;;;;2214162;59;1788;-19
2024/01/17 03:36:38;;;;;;;;;;;;;;;;;;2217803;59;3125;-19
2024/01/17 03:39:08;;;;;;;;;;;;;;;;;;2207759;59;3266;-19
2024/01/17 03:41:39;;;;;;;;;;;;;;;;;;2208130;53;2610;-19
2024/01/17 03:44:11;;;;;;;;;;;;;;;;;;2209556;59;1773;-20
2024/01/17 03:46:41;;;;;;;;;;;;;;;;;;2209101;59;2110;-19
2024/01/17 03:49:12;;;;;;;;;;;;;;;;;;2210552;67;1581;-18
2024/01/17 03:51:42;;;;;;;;;;;;;;;;;;2211774;66;2032;-19
2024/01/17 03:54:13;;;;;;;;;;;;;;;;;;2209693;59;2689;-19
2024/01/17 03:56:44;;;;;;;;;;;;;;;;;;2206243;67;1937;-19
2024/01/17 03:59:15;;;;;;;;;;;;;;;;;;2214507;53;2961;-19
2024/01/17 04:01:46;;;;;;;;;;;;;;;;;;2214735;66;2475;-18
2024/01/17 04:04:17;;;;;;;;;;;;;;;;;;2214957;53;3067;-20
2024/01/17 04:06:47;;;;;;;;;;;;;;;;;;2216667;53;3208;-20
2024/01/17 04:09:19;;;;;;;;;;;;;;;;;;2206789;59;1896;-18
2024/01/17 04:11:50;;;;;;;;;;;;;;;;;;2206481;59;2057;-18
2024/01/17 04:14:20;;;;;;;;;;;;;;;;;;2208549;59;2001;-20
2024/01/17 04:16:50;;;;;;;;;;;;;;;;;;2207033;67;1810;-18
2024/01/17 04:19:21;;;;;;;;;;;;;;;;;;2207971;59;1751;-18
2024/01/17 04:21:56;;;;;;;;;;;;;;;;;;2206428;67;1910;-21
2024/01/17 04:24:28;;;;;;;;;;;;;;;;;;2207960;67;2017;-18
2024/01/17 04:26:58;;;;;;;;;;;;;;;;;;2208119;67;1844;-21
2024/01/17 04:29:29;;;;;;;;;;;;;;;;;;2207067;67;2216;-21
2024/01/17 04:32:00;;;;;;;;;;;;;;;;;;2211789;53;3109;-18
2024/01/17 04:34:31;;;;;;;;;;;;;;;;;;2203357;59;1774;-21
2024/01/17 04:37:01;;;;;;;;;;;;;;;;;;2209023;59;3339;-19
2024/01/17 04:39:34;;;;;;;;;;;;;;;;;;2206602;59;2258;-20
2024/01/17 04:42:04;;;;;;;;;;;;;;;;;;2205305;59;3253;-21
2024/01/17 04:44:35;;;;;;;;;;;;;;;;;;2206733;53;3251;-18
2024/01/17 04:47:05;;;;;;;;;;;;;;;;;;2210806;59;1731;-21
2024/01/17 04:49:35;;;;;;;;;;;;;;;;;;2212794;53;2740;-18
2024/01/17 04:52:06;;;;;;;;;;;;;;;;;;2213159;58;2356;-18
2024/01/17 04:54:36;;;;;;;;;;;;;;;;;;2213382;58;2328;-18
2024/01/17 04:57:07;;;;;;;;;;;;;;;;;;2215913;53;2550;-18
2024/01/17 04:59:37;;;;;;;;;;;;;;;;;;2213633;53;3036;-19
2024/01/17 05:02:09;;;;;;;;;;;;;;;;;;2213823;58;2321;-19
2024/01/17 05:04:40;;;;;;;;;;;;;;;;;;2213488;66;1955;-20
2024/01/17 05:07:10;;;;;;;;;;;;;;;;;;2213954;53;2552;-21
2024/01/17 05:09:41;;;;;;;;;;;;;;;;;;2209820;67;1801;-19
2024/01/17 05:12:11;;;;;;;;;;;;;;;;;;2210200;58;1948;-22
2024/01/17 05:14:42;;;;;;;;;;;;;;;;;;2209729;59;1768;-22
2024/01/17 05:17:13;;;;;;;;;;;;;;;;;;2211308;67;1782;-20
2024/01/17 05:19:43;;;;;;;;;;;;;;;;;;2209383;67;1925;-22
2024/01/17 05:22:14;;;;;;;;;;;;;;;;;;2212657;53;2697;-20
2024/01/17 05:24:44;;;;;;;;;;;;;;;;;;2207110;59;2049;-22
2024/01/17 05:27:15;;;;;;;;;;;;;;;;;;2208705;59;1784;-20
2024/01/17 05:29:45;;;;;;;;;;;;;;;;;;2207675;59;2784;-23
2024/01/17 05:32:16;;;;;;;;;;;;;;;;;;2204888;59;1992;-22
2024/01/17 05:34:48;;;;;;;;;;;;;;;;;;2214369;53;3191;-23
2024/01/17 05:37:21;;;;;;;;;;;;;;;;;;2213757;53;2551;-20
2024/01/17 05:39:52;;;;;;;;;;;;;;;;;;2208749;67;2653;-22
2024/01/17 05:42:22;;;;;;;;;;;;;;;;;;2209262;53;3128;-23
2024/01/17 05:44:53;;;;;;;;;;;;;;;;;;2208991;59;2375;-20
2024/01/17 05:47:24;;;;;;;;;;;;;;;;;;2213355;59;1585;-21
2024/01/17 05:49:54;;;;;;;;;;;;;;;;;;2211348;67;1931;-22
2024/01/17 05:52:25;;;;;;;;;;;;;;;;;;2221951;53;3130;-20
2024/01/17 05:54:55;;;;;;;;;;;;;;;;;;2207205;59;2546;-20
2024/01/17 05:57:26;;;;;;;;;;;;;;;;;;2207785;59;2235;-23
2024/01/17 05:59:57;;;;;;;;;;;;;;;;;;2207254;59;2389;-23
2024/01/17 06:02:27;;;;;;;;;;;;;;;;;;2204077;59;1793;-20
2024/01/17 06:04:57;;;;;;;;;;;;;;;;;;2203013;59;2929;-21
2024/01/17 06:07:28;;;;;;;;;;;;;;;;;;2205448;59;1917;-23
2024/01/17 06:09:58;;;;;;;;;;;;;;;;;;2208798;53;2501;-21
2024/01/17 06:12:29;;;;;;;;;;;;;;;;;;2217004;53;3339;-22
2024/01/17 06:14:59;;;;;;;;;;;;;;;;;;2214365;58;2459;-24
2024/01/17 06:17:30;;;;;;;;;;;;;;;;;;2213794;58;1980;-24
2024/01/17 06:20:00;;;;;;;;;;;;;;;;;;2214517;66;2336;-20
2024/01/17 06:22:31;;;;;;;;;;;;;;;;;;2214165;58;1999;-23
2024/01/17 06:25:03;;;;;;;;;;;;;;;;;;2215320;59;2133;-20
2024/01/17 06:27:34;;;;;;;;;;;;;;;;;;2214751;66;2502;-21
2024/01/17 06:30:05;;;;;;;;;;;;;;;;;;2196752;53;3138;-20
2024/01/17 06:32:35;;;;;;;;;;;;;;;;;;2207570;67;2416;-23
2024/01/17 06:35:10;;;;;;;;;;;;;;;;;;2208492;59;2774;-21
2024/01/17 06:37:40;;;;;;;;;;;;;;;;;;2198520;59;4925;-21
2024/01/17 06:40:11;;;;;;;;;;;;;;;;;;2207694;59;1988;-24
2024/01/17 06:42:41;;;;;;;;;;;;;;;;;;2207601;59;2091;-22
2024/01/17 06:45:12;;;;;;;;;;;;;;;;;;2208435;59;2876;-24
2024/01/17 06:47:42;;;;;;;;;;;;;;;;;;2207850;59;2198;-20
2024/01/17 06:50:14;;;;;;;;;;;;;;;;;;2208427;59;2194;-20
2024/01/17 06:52:45;;;;;;;;;;;;;;;;;;2206898;59;2500;-23
2024/01/17 06:55:16;;;;;;;;;;;;;;;;;;2207196;59;2944;-19
2024/01/17 06:57:46;;;;;;;;;;;;;;;;;;2206767;59;2001;-22
2024/01/17 07:00:17;;;;;;;;;;;;;;;;;;2206874;59;2454;-23
2024/01/17 07:02:50;;;;;;;;;;;;;;;;;;2207877;59;1754;-23
2024/01/17 07:05:22;;;;;;;;;;;;;;;;;;2209694;53;2529;-20
2024/01/17 07:07:52;;;;;;;;;;;;;;;;;;2210981;59;2323;-22
2024/01/17 07:10:23;;;;;;;;;;;;;;;;;;2210958;67;1990;-19
2024/01/17 07:12:53;;;;;;;;;;;;;;;;;;2209811;59;2350;-19
2024/01/17 07:15:24;;;;;;;;;;;;;;;;;;2207840;59;4144;-23
2024/01/17 07:17:55;;;;;;;;;;;;;;;;;;2209629;59;1962;-20
2024/01/17 07:20:26;;;;;;;;;;;;;;;;;;2204830;59;2422;-23
2024/01/17 07:22:57;;;;;;;;;;;;;;;;;;2210960;59;2521;-19
2024/01/17 07:25:27;;;;;;;;;;;;;;;;;;2211421;59;1786;-20
2024/01/17 07:27:57;;;;;;;;;;;;;;;;;;2204953;67;2067;-23
2024/01/17 07:30:28;;;;;;;;;;;;;;;;;;2211972;59;2121;-20
2024/01/17 07:32:58;;;;;;;;;;;;;;;;;;2210734;67;1989;-20
2024/01/17 07:35:29;;;;;;;;;;;;;;;;;;2206928;59;2047;-20
2024/01/17 07:38:01;;;;;;;;;;;;;;;;;;2207460;59;1951;-20
2024/01/17 07:40:31;;;;;;;;;;;;;;;;;;2211391;59;2420;-23
2024/01/17 07:43:01;;;;;;;;;;;;;;;;;;2210683;59;1971;-23
2024/01/17 07:45:31;;;;;;;;;;;;;;;;;;2211274;59;1948;-23
2024/01/17 07:48:02;;;;;;;;;;;;;;;;;;2210866;59;1990;-20
2024/01/17 07:50:32;;;;;;;;;;;;;;;;;;2211177;59;1991;-31
2024/01/17 07:53:03;;;;;;;;;;;;;;;;;;2203822;59;5187;-20
2024/01/17 07:55:33;;;;;;;;;;;;;;;;;;2202195;59;5817;-19
2024/01/17 07:58:03;;;;;;;;;;;;;;;;;;2205756;59;4523;-20
2024/01/17 08:00:34;;;;;;;;;;;;;;;;;;2210572;59;2798;-20
2024/01/17 08:03:05;;;;;;;;;;;;;;;;;;2210427;59;1984;-20
2024/01/17 08:05:35;;;;;;;;;;;;;;;;;;2210372;59;1858;-23
2024/01/17 08:08:06;;;;;;;;;;;;;;;;;;2209946;59;2251;-23
2024/01/17 08:10:38;;;;;;;;;;;;;;;;;;2210277;67;2080;-23
2024/01/17 08:13:08;;;;;;;;;;;;;;;;;;2210784;59;2644;-20
2024/01/17 08:15:38;;;;;;;;;;;;;;;;;;2209420;59;2120;-23
2024/01/17 08:18:09;;;;;;;;;;;;;;;;;;2211394;67;1829;-20
2024/01/17 08:20:39;;;;;;;;;;;;;;;;;;2209689;59;1882;-19
2024/01/17 08:23:10;;;;;;;;;;;;;;;;;;2211068;59;2843;-22
2024/01/17 08:25:40;;;;;;;;;;;;;;;;;;2208854;59;3065;-23
2024/01/17 08:28:11;;;;;;;;;;;;;;;;;;2209407;58;2170;-22
2024/01/17 08:30:41;;;;;;;;;;;;;;;;;;2206014;59;2132;-23
2024/01/17 08:33:11;;;;;;;;;;;;;;;;;;2205713;59;1837;-23
2024/01/17 08:35:42;;;;;;;;;;;;;;;;;;2206301;59;1898;-20
2024/01/17 08:38:13;;;;;;;;;;;;;;;;;;2201052;59;2590;-19
2024/01/17 08:40:43;;;;;;;;;;;;;;;;;;2204918;59;2494;-19
2024/01/17 08:43:14;;;;;;;;;;;;;;;;;;2206902;59;1859;-22
2024/01/17 08:45:44;;;;;;;;;;;;;;;;;;2206997;59;1870;-23
2024/01/17 08:48:14;;;;;;;;;;;;;;;;;;2206052;59;2431;-22
2024/01/17 08:50:45;;;;;;;;;;;;;;;;;;2204545;59;2630;-22
2024/01/17 08:53:15;;;;;;;;;;;;;;;;;;2207079;59;2543;-22
2024/01/17 08:55:47;;;;;;;;;;;;;;;;;;2206128;59;2765;-20
2024/01/17 08:58:17;;;;;;;;;;;;;;;;;;2206767;59;1832;-20
2024/01/17 09:00:47;;;;;;;;;;;;;;;;;;2205630;59;2188;-20
2024/01/17 09:03:20;;;;;;;;;;;;;;;;;;2205980;59;2173;-23
2024/01/17 09:05:50;;;;;;;;;;;;;;;;;;2205872;59;1888;-23
2024/01/17 09:08:21;;;;;;;;;;;;;;;;;;2206925;59;2504;-20
2024/01/17 09:10:52;;;;;;;;;;;;;;;;;;2205911;59;2958;-20
2024/01/17 09:13:23;;;;;;;;;;;;;;;;;;2206344;59;2171;-20
2024/01/17 09:15:53;;;;;;;;;;;;;;;;;;2205375;59;2029;-23
2024/01/17 09:18:24;;;;;;;;;;;;;;;;;;2206469;67;2303;-23
2024/01/17 09:20:55;;;;;;;;;;;;;;;;;;2207143;59;1846;-20
2024/01/17 09:23:25;;;;;;;;;;;;;;;;;;2207569;59;2532;-20
2024/01/17 09:25:55;;;;;;;;;;;;;;;;;;2207448;59;2099;-20
2024/01/17 09:46:27;;;;;;;;;;;;;;;;;;2202511;59;1925;-20
2024/01/17 09:49:17;;;;;;;;;;;;;;;;;;2203808;59;2158;-23
2024/01/17 09:52:10;;;;;;;;;;;;;;;;;;2203192;59;2793;-20
2024/01/17 09:55:01;;;;;;;;;;;;;;;;;;2205652;59;2157;-23
2024/01/17 09:57:54;;;;;;;;;;;;;;;;;;2205110;59;2238;-23
2024/01/17 10:00:25;;;;;;;;;;;;;;;;;;2206347;59;1973;-20
2024/01/17 10:02:57;;;;;;;;;;;;;;;;;;2205947;59;1903;-20
2024/01/17 10:05:30;;;;;;;;;;;;;;;;;;2205375;59;2687;-23
2024/01/17 10:08:00;;;;;;;;;;;;;;;;;;2205898;59;1883;-20
2024/01/17 10:10:31;;;;;;;;;;;;;;;;;;2206271;67;2670;-22
2024/01/17 10:13:02;;;;;;;;;;;;;;;;;;2207025;59;2208;-22
2024/01/17 10:15:32;;;;;;;;;;;;;;;;;;2207186;59;2057;-23
2024/01/17 10:18:02;;;;;;;;;;;;;;;;;;2206271;59;1801;-20
2024/01/17 10:20:33;;;;;;;;;;;;;;;;;;2207311;59;2220;-23
2024/01/17 10:23:05;;;;;;;;;;;;;;;;;;2206169;59;1950;-20
2024/01/17 10:25:39;;;;;;;;;;;;;;;;;;2207288;59;1966;-22
2024/01/17 10:28:09;;;;;;;;;;;;;;;;;;2205690;59;2416;-23
2024/01/17 10:30:39;;;;;;;;;;;;;;;;;;2207487;59;1940;-20
2024/01/17 10:33:09;;;;;;;;;;;;;;;;;;2205463;59;2498;-22
2024/01/17 10:35:40;;;;;;;;;;;;;;;;;;2203234;59;2484;-20
2024/01/17 10:38:11;;;;;;;;;;;;;;;;;;2206435;59;2717;-20
2024/01/17 10:40:44;;;;;;;;;;;;;;;;;;2206801;59;2215;-21
2024/01/17 10:43:16;;;;;;;;;;;;;;;;;;2206547;67;2066;-20
2024/01/17 10:45:46;;;;;;;;;;;;;;;;;;2207643;59;2077;-20
2024/01/17 10:48:17;;;;;;;;;;;;;;;;;;2209709;59;1976;-23
2024/01/17 10:50:48;;;;;;;;;;;;;;;;;;2203648;59;2966;-20
2024/01/17 10:53:19;;;;;;;;;;;;;;;;;;2204052;59;2165;-20
2024/01/17 10:55:50;;;;;;;;;;;;;;;;;;2205697;67;1810;-22
2024/01/17 10:58:20;;;;;;;;;;;;;;;;;;2207752;59;1814;-22
2024/01/17 11:00:51;;;;;;;;;;;;;;;;;;2206347;59;2328;-23
2024/01/17 11:03:28;;;;;;;;;;;;;;;;;;2206216;67;2150;-20
2024/01/17 11:05:59;;;;;;;;;;;;;;;;;;2206672;59;2032;-23
2024/01/17 11:08:30;;;;;;;;;;;;;;;;;;2207166;59;1957;-20
2024/01/17 11:11:01;;;;;;;;;;;;;;;;;;2206502;59;2081;-22
2024/01/17 11:13:32;;;;;;;;;;;;;;;;;;2206917;67;2676;-20
2024/01/17 11:16:03;;;;;;;;;;;;;;;;;;2203781;59;2539;-20
2024/01/17 11:18:35;;;;;;;;;;;;;;;;;;2202804;59;2177;-21
2024/01/17 11:21:05;;;;;;;;;;;;;;;;;;2205580;59;1976;-20
2024/01/17 11:23:50;;;;;;;;;;;;;;;;;;2206597;59;2036;-22
2024/01/17 11:26:39;;;;;;;;;;;;;;;;;;2206653;67;1947;-23
2024/01/17 11:29:19;;;;;;;;;;;;;;;;;;2206933;59;1784;-23
2024/01/17 11:31:49;;;;;;;;;;;;;;;;;;2205679;67;2172;-22
2024/01/17 11:34:20;;;;;;;;;;;;;;;;;;2205862;67;1981;-22
2024/01/17 11:36:52;;;;;;;;;;;;;;;;;;2209457;53;3209;-19
2024/01/17 11:39:24;;;;;;;;;;;;;;;;;;2213637;59;1862;-22
2024/01/17 11:41:55;;;;;;;;;;;;;;;;;;2213359;66;2677;-19
2024/01/17 11:44:26;;;;;;;;;;;;;;;;;;2213588;66;2275;-19
2024/01/17 11:46:57;;;;;;;;;;;;;;;;;;2211370;58;2626;-20
2024/01/17 11:49:40;;;;;;;;;;;;;;;;;;2213764;58;3365;-19
2024/01/17 11:52:27;;;;;;;;;;;;;;;;;;2214031;53;3052;-22
2024/01/17 11:54:59;;;;;;;;;;;;;;;;;;2208340;59;2830;-22
2024/01/17 11:57:35;;;;;;;;;;;;;;;;;;2207994;59;2592;-22
2024/01/17 12:00:06;;;;;;;;;;;;;;;;;;2212055;53;3034;-22
2024/01/17 12:02:38;;;;;;;;;;;;;;;;;;2210972;67;2462;-22
2024/01/17 12:05:09;;;;;;;;;;;;;;;;;;2211180;59;4065;-22
2024/01/17 12:07:40;;;;;;;;;;;;;;;;;;2210963;59;2755;-21
2024/01/17 12:10:12;;;;;;;;;;;;;;;;;;2210643;59;3212;-22
2024/01/17 12:12:43;;;;;;;;;;;;;;;;;;2212033;59;2044;-19
2024/01/17 12:15:14;;;;;;;;;;;;;;;;;;2211197;59;2772;-19
2024/01/17 12:17:45;;;;;;;;;;;;;;;;;;2211313;59;1808;-19
2024/01/17 12:20:16;;;;;;;;;;;;;;;;;;2210946;63;2442;-22
2024/01/17 12:22:50;;;;;;;;;;;;;;;;;;2210395;53;3077;-22
2024/01/17 12:25:22;;;;;;;;;;;;;;;;;;2206142;59;2189;-22
2024/01/17 12:27:56;;;;;;;;;;;;;;;;;;2206532;59;2471;-19
2024/01/17 12:30:27;;;;;;;;;;;;;;;;;;2206751;59;2108;-22
2024/01/17 12:32:57;;;;;;;;;;;;;;;;;;2207003;59;1959;-19
2024/01/17 12:35:27;;;;;;;;;;;;;;;;;;2207865;67;2042;-19
2024/01/17 12:37:58;;;;;;;;;;;;;;;;;;2206481;67;1770;-19
2024/01/17 12:40:29;;;;;;;;;;;;;;;;;;2205709;59;2034;-20
2024/01/17 12:43:00;;;;;;;;;;;;;;;;;;2207090;59;1992;-20
2024/01/17 12:45:31;;;;;;;;;;;;;;;;;;2210824;53;3318;-21
2024/01/17 12:48:02;;;;;;;;;;;;;;;;;;2211569;59;2703;-21
2024/01/17 12:50:33;;;;;;;;;;;;;;;;;;2210583;66;2051;-22
2024/01/17 12:53:04;;;;;;;;;;;;;;;;;;2209368;59;2342;-20
2024/01/17 12:55:37;;;;;;;;;;;;;;;;;;2209114;59;2230;-21
2024/01/17 12:58:15;;;;;;;;;;;;;;;;;;2206683;59;1713;-20
2024/01/17 13:00:47;;;;;;;;;;;;;;;;;;2209229;66;3252;-22
2024/01/17 13:03:18;;;;;;;;;;;;;;;;;;2209002;53;3170;-22
2024/01/17 13:06:03;;;;;;;;;;;;;;;;;;2205962;59;1939;-20
2024/01/17 13:08:33;;;;;;;;;;;;;;;;;;2206304;59;2302;-22
2024/01/17 13:11:13;;;;;;;;;;;;;;;;;;2199900;67;2291;-22
2024/01/17 13:13:43;;;;;;;;;;;;;;;;;;2202623;67;2687;-20
2024/01/17 13:16:14;;;;;;;;;;;;;;;;;;2202231;67;2380;-22
2024/01/17 13:18:55;;;;;;;;;;;;;;;;;;2203682;67;1876;-19
2024/01/17 13:21:26;;;;;;;;;;;;;;;;;;2202763;59;2536;-22
2024/01/17 13:23:56;;;;;;;;;;;;;;;;;;2203342;59;2435;-22
2024/01/17 13:26:29;;;;;;;;;;;;;;;;;;2203461;59;1879;-21
2024/01/17 13:28:59;;;;;;;;;;;;;;;;;;2201210;59;2135;-19
2024/01/17 13:31:39;;;;;;;;;;;;;;;;;;2203635;59;1927;-21
2024/01/17 13:34:11;;;;;;;;;;;;;;;;;;2202048;59;1717;-21
2024/01/17 13:36:44;;;;;;;;;;;;;;;;;;2203124;67;2149;-22
2024/01/17 13:39:15;;;;;;;;;;;;;;;;;;2202210;59;2495;-22
2024/01/17 13:41:46;;;;;;;;;;;;;;;;;;2203632;59;2531;-21
2024/01/17 13:44:18;;;;;;;;;;;;;;;;;;2202005;67;2018;-20
2024/01/17 13:46:49;;;;;;;;;;;;;;;;;;2202636;59;1781;-21
2024/01/17 13:49:24;;;;;;;;;;;;;;;;;;2203016;59;2961;-22
2024/01/17 13:51:55;;;;;;;;;;;;;;;;;;2202209;67;2192;-21
2024/01/17 13:54:26;;;;;;;;;;;;;;;;;;2202119;59;2476;-22
2024/01/17 13:56:56;;;;;;;;;;;;;;;;;;2202029;59;2047;-20
2024/01/17 13:59:28;;;;;;;;;;;;;;;;;;2201943;59;2308;-21
2024/01/17 14:02:01;;;;;;;;;;;;;;;;;;2201570;59;2202;-21
2024/01/17 14:04:34;;;;;;;;;;;;;;;;;;2202908;59;1966;-19
2024/01/17 14:07:04;;;;;;;;;;;;;;;;;;2201982;59;1903;-21
2024/01/17 14:09:35;;;;;;;;;;;;;;;;;;2202233;67;1775;-20
2024/01/17 14:12:05;;;;;;;;;;;;;;;;;;2201273;67;2116;-21
2024/01/17 14:14:39;;;;;;;;;;;;;;;;;;2201126;59;2080;-20
2024/01/17 14:17:09;;;;;;;;;;;;;;;;;;2204383;59;3328;-21
2024/01/17 14:19:40;;;;;;;;;;;;;;;;;;2205433;59;2656;-21
2024/01/17 14:22:12;;;;;;;;;;;;;;;;;;2204463;59;2189;-20
2024/01/17 14:24:42;;;;;;;;;;;;;;;;;;2205105;59;2471;-21
2024/01/17 14:27:13;;;;;;;;;;;;;;;;;;2209004;53;3335;-20
2024/01/17 14:29:43;;;;;;;;;;;;;;;;;;2210687;58;1731;-21
2024/01/17 14:32:14;;;;;;;;;;;;;;;;;;2213788;58;1982;-21
2024/01/17 14:34:45;;;;;;;;;;;;;;;;;;2213125;59;1931;-21
2024/01/17 14:37:16;;;;;;;;;;;;;;;;;;2213996;59;2660;-20
2024/01/17 14:39:47;;;;;;;;;;;;;;;;;;2213904;63;2001;-21
2024/01/17 14:42:22;;;;;;;;;;;;;;;;;;2213459;66;1835;-21
2024/01/17 14:44:55;;;;;;;;;;;;;;;;;;2211958;53;3131;-21
2024/01/17 14:47:27;;;;;;;;;;;;;;;;;;2212314;53;3567;-21
2024/01/17 14:49:57;;;;;;;;;;;;;;;;;;2213581;58;2489;-19
2024/01/17 14:52:28;;;;;;;;;;;;;;;;;;2210030;59;1937;-19
2024/01/17 14:55:01;;;;;;;;;;;;;;;;;;2209502;59;2369;-19
2024/01/17 14:57:31;;;;;;;;;;;;;;;;;;2209409;59;2588;-19
2024/01/17 15:00:05;;;;;;;;;;;;;;;;;;2209550;66;1938;-21
2024/01/17 15:02:35;;;;;;;;;;;;;;;;;;2210441;66;1818;-21
2024/01/17 15:05:07;;;;;;;;;;;;;;;;;;2210630;59;2067;-19
2024/01/17 15:07:38;;;;;;;;;;;;;;;;;;2211104;59;1743;-21
2024/01/17 15:10:10;;;;;;;;;;;;;;;;;;2210642;58;2493;-21
2024/01/17 15:12:44;;;;;;;;;;;;;;;;;;2210325;66;1941;-19
2024/01/17 15:15:14;;;;;;;;;;;;;;;;;;2213297;66;2359;-19
2024/01/17 15:17:44;;;;;;;;;;;;;;;;;;2209946;59;2426;-19
2024/01/17 15:20:15;;;;;;;;;;;;;;;;;;2210187;59;1896;-19
2024/01/17 15:22:45;;;;;;;;;;;;;;;;;;2210500;59;2207;-19
2024/01/17 15:25:17;;;;;;;;;;;;;;;;;;2209794;59;2569;-20
2024/01/17 15:27:48;;;;;;;;;;;;;;;;;;2210372;59;2347;-21
2024/01/17 15:30:18;;;;;;;;;;;;;;;;;;2210460;59;1773;-21
2024/01/17 15:32:48;;;;;;;;;;;;;;;;;;2211122;59;1957;-21
2024/01/17 15:35:22;;;;;;;;;;;;;;;;;;2210682;66;1903;-20
2024/01/17 15:37:52;;;;;;;;;;;;;;;;;;2211478;59;2391;-21
2024/01/17 15:40:23;;;;;;;;;;;;;;;;;;2209513;59;2037;-19
2024/01/17 15:42:54;;;;;;;;;;;;;;;;;;2210999;66;1867;-21
2024/01/17 15:45:24;;;;;;;;;;;;;;;;;;2209684;59;1919;-19
2024/01/17 15:47:54;;;;;;;;;;;;;;;;;;2211233;59;2752;-21
2024/01/17 15:50:25;;;;;;;;;;;;;;;;;;2210151;66;2023;-20
2024/01/17 15:52:55;;;;;;;;;;;;;;;;;;2210911;59;1966;-20
2024/01/17 15:55:26;;;;;;;;;;;;;;;;;;2210219;66;2256;-19
2024/01/17 15:57:56;;;;;;;;;;;;;;;;;;2215199;58;3255;-19
2024/01/17 16:00:26;;;;;;;;;;;;;;;;;;2211407;53;3097;-19
2024/01/17 16:02:57;;;;;;;;;;;;;;;;;;2211548;59;2319;-21
2024/01/17 16:05:27;;;;;;;;;;;;;;;;;;2211694;59;2637;-19
2024/01/17 16:07:57;;;;;;;;;;;;;;;;;;2211879;59;1842;-19
2024/01/17 16:10:28;;;;;;;;;;;;;;;;;;2210352;66;1785;-21
2024/01/17 16:12:59;;;;;;;;;;;;;;;;;;2211984;66;1992;-19
2024/01/17 16:15:29;;;;;;;;;;;;;;;;;;2211128;66;2015;-19
2024/01/17 16:18:00;;;;;;;;;;;;;;;;;;2211181;59;2113;-19
2024/01/17 16:20:31;;;;;;;;;;;;;;;;;;2211021;53;3122;-20
2024/01/17 16:23:01;;;;;;;;;;;;;;;;;;2210589;59;2497;-21
2024/01/17 16:25:31;;;;;;;;;;;;;;;;;;2211303;53;2562;-21
2024/01/17 16:28:02;;;;;;;;;;;;;;;;;;2210145;59;2468;-20
2024/01/17 16:30:33;;;;;;;;;;;;;;;;;;2208653;59;1904;-22
2024/01/17 16:33:03;;;;;;;;;;;;;;;;;;2205191;59;2847;-21
2024/01/17 16:35:34;;;;;;;;;;;;;;;;;;2206271;59;2077;-20
2024/01/17 16:38:05;;;;;;;;;;;;;;;;;;2206397;59;2500;-22
2024/01/17 16:40:37;;;;;;;;;;;;;;;;;;2205915;59;3529;-22
2024/01/17 16:43:08;;;;;;;;;;;;;;;;;;2201551;59;1901;-20
2024/01/17 16:45:38;;;;;;;;;;;;;;;;;;2205741;59;1931;-22
2024/01/17 16:48:08;;;;;;;;;;;;;;;;;;2204779;59;2606;-19
2024/01/17 16:50:39;;;;;;;;;;;;;;;;;;2206238;67;2488;-19
2024/01/17 16:53:09;;;;;;;;;;;;;;;;;;2207730;53;3035;-22
2024/01/17 16:55:41;;;;;;;;;;;;;;;;;;2208813;59;1698;-21
2024/01/17 16:58:14;;;;;;;;;;;;;;;;;;2204557;59;2527;-20
2024/01/17 17:00:46;;;;;;;;;;;;;;;;;;2208959;66;2148;-21
2024/01/17 17:03:19;;;;;;;;;;;;;;;;;;2201375;59;3670;-19
2024/01/17 17:05:50;;;;;;;;;;;;;;;;;;2207116;59;3244;-22
2024/01/17 17:08:21;;;;;;;;;;;;;;;;;;2208672;59;2472;-22
2024/01/17 17:10:52;;;;;;;;;;;;;;;;;;2207491;59;2069;-22
2024/01/17 17:13:22;;;;;;;;;;;;;;;;;;2208340;59;1975;-22
2024/01/17 17:15:54;;;;;;;;;;;;;;;;;;2208510;59;1867;-22
2024/01/17 17:18:25;;;;;;;;;;;;;;;;;;2207576;59;1853;-22
2024/01/17 17:20:59;;;;;;;;;;;;;;;;;;2208367;67;2540;-22
2024/01/17 17:23:29;;;;;;;;;;;;;;;;;;2209176;59;1760;-23
2024/01/17 17:26:03;;;;;;;;;;;;;;;;;;2210855;59;1741;-22
2024/01/17 17:28:34;;;;;;;;;;;;;;;;;;2209856;59;2349;-22
2024/01/17 17:31:06;;;;;;;;;;;;;;;;;;2210054;59;1971;-22
2024/01/17 17:33:36;;;;;;;;;;;;;;;;;;2206043;67;1695;-22
2024/01/17 17:36:07;;;;;;;;;;;;;;;;;;2209344;59;1770;-22
2024/01/17 17:38:37;;;;;;;;;;;;;;;;;;2208887;59;2407;-23
2024/01/17 17:41:08;;;;;;;;;;;;;;;;;;2209396;59;2064;-22
2024/01/17 17:43:38;;;;;;;;;;;;;;;;;;2208699;67;1303;-23
2024/01/17 17:46:08;;;;;;;;;;;;;;;;;;2209513;66;1955;-23
2024/01/17 17:48:40;;;;;;;;;;;;;;;;;;2207817;59;2070;-23
2024/01/17 17:51:12;;;;;;;;;;;;;;;;;;2208577;67;1938;-22
2024/01/17 17:53:42;;;;;;;;;;;;;;;;;;2208128;59;1410;-22
2024/01/17 17:56:12;;;;;;;;;;;;;;;;;;2208283;59;1522;-24